Time;durP1;ratioP1;P1;durP2;ratioP2;P2;SDS_P1;SDS_P2;PMS_P1;PMS_P2;Temp;Humidity;BMP_temperature;BMP_pressure;BME280_temperature;BME280_humidity;BME280_pressure;Samples;Min_cycle;Max_cycle;Signal;HPM_P1;HPM_P2
2022/11/07 00:00:59;;;;;;;23.38;13.38;;;;;;;15.05;77.33;100318.13;5089779;28;20028;-26
2022/11/07 00:03:25;;;;;;;20.52;12.32;;;;;;;15.01;77.30;100311.59;5090142;28;20039;-27
2022/11/07 00:05:53;;;;;;;26.27;14.45;;;;;;;15.18;77.16;100344.69;5090004;28;20108;-28
2022/11/07 00:08:19;;;;;;;51.38;23.02;;;;;;;15.15;77.00;100342.47;5090324;28;20024;-27
2022/11/07 00:10:45;;;;;;;44.55;19.55;;;;;;;15.17;77.18;100343.03;5090367;28;20043;-26
2022/11/07 00:13:10;;;;;;;37.15;16.02;;;;;;;15.26;76.79;100341.59;5090231;28;20497;-26
2022/11/07 00:15:35;;;;;;;28.80;14.82;;;;;;;15.17;77.21;100336.88;5090103;28;20381;-27
2022/11/07 00:18:01;;;;;;;36.65;17.38;;;;;;;14.96;78.27;100344.56;5089590;28;20034;-27
2022/11/07 00:20:26;;;;;;;31.33;17.23;;;;;;;14.95;78.75;100342.13;5089732;28;20380;-30
2022/11/07 00:22:51;;;;;;;38.30;17.08;;;;;;;15.11;77.84;100344.00;5090203;28;20081;-28
2022/11/07 00:25:17;;;;;;;24.85;12.80;;;;;;;15.17;77.13;100340.34;5071470;28;20034;-28
2022/11/07 00:27:42;;;;;;;26.27;13.48;;;;;;;15.12;77.37;100348.34;5089740;28;20412;-29
2022/11/07 00:30:08;;;;;;;28.30;13.25;;;;;;;15.04;76.95;100327.25;5089414;28;20077;-29
2022/11/07 00:32:33;;;;;;;26.35;13.13;;;;;;;15.11;77.58;100341.31;5071199;28;20119;-26
2022/11/07 00:34:59;;;;;;;31.90;16.33;;;;;;;15.03;77.53;100337.16;5089599;28;20496;-29
2022/11/07 00:37:25;;;;;;;37.90;20.65;;;;;;;14.94;77.59;100325.19;5089465;28;20035;-29
2022/11/07 00:39:50;;;;;;;33.88;18.95;;;;;;;14.82;78.48;100335.97;5089676;28;20024;-30
2022/11/07 00:42:15;;;;;;;31.80;17.85;;;;;;;14.75;79.42;100347.91;5089297;28;20716;-26
2022/11/07 00:44:41;;;;;;;31.48;18.05;;;;;;;14.96;78.45;100347.25;5089964;28;20423;-27
2022/11/07 00:47:06;;;;;;;30.17;15.52;;;;;;;14.83;78.12;100326.06;5089432;28;20032;-31
2022/11/07 00:49:32;;;;;;;26.67;14.88;;;;;;;14.98;77.89;100345.13;5071066;28;20039;-26
2022/11/07 00:51:57;;;;;;;28.60;16.00;;;;;;;14.86;78.74;100342.50;5089382;28;20025;-34
2022/11/07 00:54:22;;;;;;;25.67;14.80;;;;;;;15.05;78.41;100344.97;5089561;28;20039;-26
2022/11/07 00:56:48;;;;;;;28.48;14.70;;;;;;;14.87;77.46;100321.81;5089670;28;20575;-27
2022/11/07 00:59:13;;;;;;;25.27;14.57;;;;;;;14.84;78.73;100339.25;5089041;28;20028;-27
2022/11/07 01:01:39;;;;;;;23.83;14.30;;;;;;;14.84;78.75;100333.88;5087851;28;20032;-28
2022/11/07 01:06:49;;;;;;;26.58;14.75;;;;;;;14.91;78.13;100322.97;5089242;28;20117;-27
2022/11/07 01:09:17;;;;;;;26.85;15.07;;;;;;;14.97;78.19;100334.63;5088726;28;20040;-36
2022/11/07 01:11:43;;;;;;;25.55;15.05;;;;;;;14.90;78.12;100326.72;5088522;28;20032;-27
2022/11/07 01:14:11;;;;;;;24.00;14.73;;;;;;;14.89;78.33;100343.06;5088615;28;20047;-29
2022/11/07 01:16:37;;;;;;;25.80;15.60;;;;;;;14.44;80.58;100323.13;5088605;28;20068;-27
2022/11/07 01:19:04;;;;;;;25.80;13.90;;;;;;;14.57;80.18;100327.47;5088766;28;20032;-29
2022/11/07 01:21:29;;;;;;;23.40;13.57;;;;;;;14.55;80.36;100324.16;5089094;28;20085;-26
2022/11/07 01:23:55;;;;;;;27.10;14.57;;;;;;;14.74;79.94;100339.06;5087139;28;20036;-29
2022/11/07 01:26:21;;;;;;;23.48;15.68;;;;;;;14.75;78.81;100315.69;5088949;28;20043;-28
2022/11/07 01:28:46;;;;;;;29.73;15.65;;;;;;;14.85;79.01;100346.25;5088610;28;20125;-26
2022/11/07 01:31:13;;;;;;;31.45;15.75;;;;;;;14.59;79.66;100325.34;5088417;28;20039;-29
2022/11/07 01:33:39;;;;;;;26.43;14.23;;;;;;;14.65;79.95;100345.88;5088811;28;20110;-29
2022/11/07 01:36:08;;;;;;;27.42;14.88;;;;;;;14.57;79.66;100327.47;5088412;28;20108;-28
2022/11/07 01:38:35;;;;;;;25.13;14.93;;;;;;;14.53;80.06;100343.19;5088661;28;20107;-26
2022/11/07 01:43:46;;;;;;;23.40;13.32;;;;;;;14.39;80.09;100342.63;5088498;28;20035;-30
2022/11/07 01:46:12;;;;;;;24.63;14.15;;;;;;;14.31;80.28;100337.63;5088608;28;20152;-27
2022/11/07 01:48:40;;;;;;;23.77;13.57;;;;;;;14.13;80.89;100316.34;5088466;28;20412;-26
2022/11/07 01:51:06;;;;;;;27.67;15.60;;;;;;;14.11;80.92;100326.47;5069938;28;20036;-30
2022/11/07 01:53:34;;;;;;;25.70;16.67;;;;;;;14.23;80.83;100321.91;5069786;28;20039;-27
2022/11/07 01:56:00;;;;;;;26.92;15.95;;;;;;;14.10;80.95;100317.63;5087799;28;20024;-27
2022/11/07 01:58:26;;;;;;;30.52;18.23;;;;;;;14.15;81.33;100324.97;5088428;28;20024;-27
2022/11/07 02:00:51;;;;;;;37.08;19.02;;;;;;;14.02;81.70;100305.38;5086760;28;20035;-27
2022/11/07 02:03:20;;;;;;;31.67;20.05;;;;;;;14.01;82.15;100314.47;5087661;28;20516;-26
2022/11/07 02:05:52;;;;;;;40.10;22.85;;;;;;;14.06;82.34;100332.56;5087838;28;21494;-27
2022/11/07 02:08:19;;;;;;;53.88;29.13;;;;;;;14.12;82.26;100330.78;5087730;28;20034;-25
2022/11/07 02:10:45;;;;;;;51.22;25.52;;;;;;;14.10;81.80;100322.16;5087608;28;20119;-27
2022/11/07 02:13:17;;;;;;;43.30;24.73;;;;;;;14.28;81.61;100340.78;5087656;28;20028;-28
2022/11/07 02:15:42;;;;;;;34.50;21.13;;;;;;;14.19;81.87;100331.47;5087933;28;20028;-28
2022/11/07 02:18:08;;;;;;;36.30;21.08;;;;;;;14.30;82.45;100354.78;5087668;28;20039;-28
2022/11/07 02:20:33;;;;;;;41.38;22.98;;;;;;;14.33;82.52;100340.91;5087504;28;20142;-30
2022/11/07 02:23:05;;;;;;;35.50;21.60;;;;;;;14.43;82.23;100348.34;5086877;28;20032;-27
2022/11/07 02:25:31;;;;;;;35.08;22.70;;;;;;;14.34;82.37;100353.25;5087635;28;20028;-28
2022/11/07 02:28:00;;;;;;;34.10;22.65;;;;;;;14.47;82.60;100350.31;5087405;28;20031;-29
2022/11/07 02:30:29;;;;;;;35.67;22.92;;;;;;;14.16;84.04;100356.06;5069353;28;20036;-27
2022/11/07 02:32:55;;;;;;;;;;;;;;;14.42;83.54;100355.56;5069798;28;20058;-26
2022/11/07 02:35:41;;;;;;;43.92;24.02;;;;;;;14.51;83.14;100372.13;5087440;28;19947;-29
2022/11/07 02:38:16;;;;;;;40.05;25.33;;;;;;;14.47;82.46;100361.03;5087409;28;20093;-26
2022/11/07 02:40:44;;;;;;;31.58;14.40;;;;;;;14.84;77.56;100366.09;5087609;28;20031;-27
2022/11/07 02:43:11;;;;;;;;;;;;;;;14.96;78.29;100367.94;5087773;28;20032;-29
2022/11/07 02:45:40;;;;;;;43.22;21.92;;;;;;;14.63;80.46;100364.88;5069408;28;19912;-28
2022/11/07 02:48:06;;;;;;;34.95;20.90;;;;;;;14.75;80.76;100383.66;5086800;28;20028;-30
2022/11/07 02:50:31;;;;;;;37.08;23.02;;;;;;;14.66;80.90;100363.59;5087787;28;20051;-26
2022/11/07 02:52:57;;;;;;;38.17;23.35;;;;;;;14.71;81.30;100382.50;5087319;28;20562;-27
2022/11/07 02:55:22;;;;;;;39.38;23.35;;;;;;;14.75;81.34;100389.03;5087151;28;20069;-28
2022/11/07 02:57:48;;;;;;;41.33;24.45;;;;;;;14.66;81.32;100368.97;5087254;28;20028;-26
2022/11/07 03:00:14;;;;;;;39.70;24.75;;;;;;;14.60;81.84;100376.09;5086877;28;20028;-27
2022/11/07 03:02:45;;;;;;;44.67;24.67;;;;;;;14.51;82.75;100371.31;5085627;28;20054;-28
2022/11/07 03:05:16;;;;;;;48.90;27.27;;;;;;;14.59;82.11;100363.72;5087233;28;20498;-26
2022/11/07 03:07:43;;;;;;;41.63;25.15;;;;;;;14.60;82.37;100376.09;5087230;28;20079;-26
2022/11/07 03:10:10;;;;;;;42.75;26.40;;;;;;;14.55;83.15;100393.94;5086960;28;20032;-29
2022/11/07 03:12:35;;;;;;;40.75;25.42;;;;;;;14.47;82.77;100366.41;5087137;28;20074;-26
2022/11/07 03:15:01;;;;;;;43.13;25.13;;;;;;;14.42;83.39;100390.44;5087325;28;20036;-28
2022/11/07 03:17:26;;;;;;;37.17;25.65;;;;;;;14.33;84.14;100380.34;5086722;28;20032;-26
2022/11/07 03:19:52;;;;;;;39.60;25.35;;;;;;;14.41;84.17;100388.81;5086897;28;20039;-28
2022/11/07 03:22:17;;;;;;;42.20;26.10;;;;;;;14.40;83.72;100371.06;5068714;28;20028;-28
2022/11/07 03:24:43;;;;;;;41.25;26.67;;;;;;;14.48;83.25;100372.59;5087045;28;20020;-26
2022/11/07 03:27:08;;;;;;;48.65;27.40;;;;;;;14.51;83.19;100365.97;5086894;28;20032;-27
2022/11/07 03:29:33;;;;;;;40.67;26.60;;;;;;;14.65;83.50;100399.56;5086802;28;20751;-28
2022/11/07 03:31:59;;;;;;;41.22;26.08;;;;;;;14.53;82.99;100374.59;5086347;28;20079;-27
2022/11/07 03:34:24;;;;;;;42.65;26.25;;;;;;;14.57;83.23;100386.50;5089471;28;20031;-27
2022/11/07 03:36:50;;;;;;;76.88;41.85;;;;;;;14.50;83.37;100375.03;5072673;28;20034;-27
2022/11/07 03:39:15;;;;;;;160.05;75.25;;;;;;;14.52;83.36;100378.31;5090515;28;20028;-27
2022/11/07 03:41:40;;;;;;;200.40;89.50;;;;;;;14.71;82.58;100390.56;5055830;28;20043;-26
2022/11/07 03:44:06;;;;;;;160.00;71.50;;;;;;;14.57;83.14;100391.88;5090518;28;20031;-27
2022/11/07 03:46:31;;;;;;;101.20;49.38;;;;;;;14.54;83.93;100393.09;5090629;28;20038;-28
2022/11/07 03:48:57;;;;;;;91.85;48.20;;;;;;;14.53;83.12;100380.75;5090708;28;20034;-26
2022/11/07 03:51:22;;;;;;;83.10;42.45;;;;;;;14.45;83.99;100384.63;5090793;28;20031;-27
2022/11/07 03:53:47;;;;;;;67.03;37.70;;;;;;;14.52;83.81;100384.47;5072338;28;20128;-27
2022/11/07 03:56:13;;;;;;;57.28;31.98;;;;;;;14.56;82.96;100368.75;5090693;28;20119;-27
2022/11/07 03:58:38;;;;;;;50.50;31.15;;;;;;;14.75;82.51;100389.03;5090549;28;20051;-27
2022/11/07 04:01:04;;;;;;;58.75;31.85;;;;;;;14.45;84.00;100392.66;5089937;28;20088;-28
2022/11/07 04:03:31;;;;;;;59.05;33.28;;;;;;;14.44;84.17;100388.38;5090508;28;20036;-28
2022/11/07 04:05:57;;;;;;;59.28;34.47;;;;;;;14.28;84.39;100375.66;5089831;28;20056;-27
2022/11/07 04:08:22;;;;;;;64.60;35.85;;;;;;;14.45;84.15;100387.31;5071844;28;20535;-26
2022/11/07 04:10:48;;;;;;;72.55;40.53;;;;;;;14.61;82.81;100376.94;5090212;28;20059;-27
2022/11/07 04:18:33;;;;;;;63.10;36.42;;;;;;;14.22;84.96;100373.91;5090271;28;20036;-29
2022/11/07 04:20:59;;;;;;;53.70;34.40;;;;;;;14.40;84.68;100378.31;5089681;28;20034;-28
2022/11/07 04:23:24;;;;;;;54.53;32.58;;;;;;;14.26;85.20;100385.81;5090031;28;20031;-29
2022/11/07 04:28:34;;;;;;;52.05;31.77;;;;;;;14.44;83.62;100382.16;5090088;28;20059;-27
2022/11/07 04:30:59;;;;;;;48.85;29.05;;;;;;;14.42;84.15;100390.44;5090148;28;20407;-27
2022/11/07 04:33:24;;;;;;;47.22;28.55;;;;;;;14.11;84.83;100377.44;5089930;28;20527;-28
2022/11/07 04:35:50;;;;;;;46.75;28.15;;;;;;;14.10;85.75;100397.25;5071517;28;20050;-26
2022/11/07 04:38:15;;;;;;;41.83;27.02;;;;;;;14.24;85.03;100395.94;5089608;28;20476;-30
2022/11/07 04:40:41;;;;;;;46.13;28.63;;;;;;;14.14;85.57;100387.69;5089274;28;20028;-27
2022/11/07 04:43:08;;;;;;;49.55;28.65;;;;;;;14.00;85.97;100377.22;5071223;28;20097;-27
2022/11/07 04:45:37;;;;;;;42.67;26.52;;;;;;;14.05;86.34;100393.41;5088886;28;20028;-27
2022/11/07 04:48:03;;;;;;;55.75;26.90;;;;;;;13.90;86.55;100379.66;5070737;28;20028;-27
2022/11/07 04:50:29;;;;;;;48.30;27.45;;;;;;;13.88;nan;100403.19;5089362;28;20089;-28
2022/11/07 04:52:55;;;;;;;48.47;27.48;;;;;;;14.14;85.29;100393.03;5089199;28;20032;-27
2022/11/07 04:55:26;;;;;;;49.25;28.75;;;;;;;14.10;84.80;100383.84;5070956;28;20036;-28
2022/11/07 04:57:52;;;;;;;45.03;26.77;;;;;;;13.99;85.76;100410.41;5089665;28;20743;-27
2022/11/07 05:00:18;;;;;;;51.50;28.30;;;;;;;14.01;85.39;100394.91;5088989;28;20044;-29
2022/11/07 05:02:45;;;;;;;52.28;27.02;;;;;;;13.71;86.11;100395.03;5089016;28;20028;-27
2022/11/07 05:05:10;;;;;;;47.25;26.77;;;;;;;14.06;84.73;100404.97;5089033;28;20032;-27
2022/11/07 05:07:37;;;;;;;48.47;26.30;;;;;;;13.88;85.35;100411.25;5088619;28;20043;-26
2022/11/07 05:10:03;;;;;;;51.38;31.30;;;;;;;13.46;85.89;100397.88;5088525;28;20212;-29
2022/11/07 05:12:29;;;;;;;63.97;33.40;;;;;;;13.83;84.98;100417.31;5089084;28;20073;-26
2022/11/07 05:14:54;;;;;;;112.28;52.58;;;;;;;13.90;84.97;100422.56;5089036;28;20028;-26
2022/11/07 05:17:20;;;;;;;116.35;51.03;;;;;;;13.88;85.46;100426.53;5089041;28;20874;-29
2022/11/07 05:19:46;;;;;;;91.53;47.38;;;;;;;13.82;86.17;100428.25;5088790;28;20031;-25
2022/11/07 05:24:56;;;;;;;71.00;34.72;;;;;;;13.33;87.31;100408.81;5088858;28;20039;-26
2022/11/07 05:27:22;;;;;;;58.28;33.10;;;;;;;13.60;86.76;100415.38;5088939;28;20032;-29
2022/11/07 05:29:47;;;;;;;59.40;34.30;;;;;;;13.69;85.92;100425.78;5088356;28;20052;-26
2022/11/07 05:32:13;;;;;;;56.97;32.40;;;;;;;13.76;85.21;100421.16;5088272;28;20458;-30
2022/11/07 05:34:39;;;;;;;66.40;34.00;;;;;;;13.55;86.26;100423.31;5088451;28;20406;-26
2022/11/07 05:37:09;;;;;;;61.58;36.65;;;;;;;13.64;86.57;100437.19;5069811;28;20056;-27
2022/11/07 05:39:35;;;;;;;86.05;40.70;;;;;;;13.71;86.05;100445.13;5069840;28;20060;-29
2022/11/07 05:42:01;;;;;;;95.30;48.97;;;;;;;13.92;85.38;100449.94;5088227;28;20060;-29
2022/11/07 05:44:28;;;;;;;102.45;48.72;;;;;;;14.09;84.66;100450.06;5070138;28;20450;-27
2022/11/07 05:46:55;;;;;;;104.18;48.38;;;;;;;14.13;84.67;100459.28;5069969;28;20040;-28
2022/11/07 05:49:20;;;;;;;104.47;46.38;;;;;;;14.13;85.01;100469.22;5088098;28;20040;-27
2022/11/07 05:51:46;;;;;;;85.53;44.67;;;;;;;13.96;85.48;100450.31;5088353;28;21049;-26
2022/11/07 05:54:11;;;;;;;79.30;41.28;;;;;;;14.23;84.77;100477.50;5088537;28;20066;-27
2022/11/07 05:56:37;;;;;;;69.70;35.78;;;;;;;14.26;84.71;100471.66;5082423;28;20024;-32
2022/11/07 05:59:03;;;;;;;70.97;35.85;;;;;;;14.32;83.66;100459.97;5067752;28;20044;-27
2022/11/07 06:01:29;;;;;;;69.68;36.17;;;;;;;14.27;84.61;100478.66;5068214;28;20056;-27
2022/11/07 06:03:55;;;;;;;59.83;34.03;;;;;;;14.00;86.36;100473.75;5067333;28;20060;-29
2022/11/07 06:06:20;;;;;;;67.13;37.90;;;;;;;14.09;85.92;100492.19;5067807;28;20044;-27
2022/11/07 06:08:45;;;;;;;67.00;36.75;;;;;;;14.06;85.73;100493.47;5067800;28;20119;-26
2022/11/07 06:11:11;;;;;;;70.65;39.38;;;;;;;14.43;84.24;100504.78;5049664;28;20206;-27
2022/11/07 06:13:36;;;;;;;74.05;38.17;;;;;;;14.64;83.04;100513.31;5049307;28;20032;-27
2022/11/07 06:16:02;;;;;;;69.10;39.38;;;;;;;14.60;83.48;100520.22;5049375;28;20037;-29
2022/11/07 06:18:27;;;;;;;71.63;42.00;;;;;;;14.63;83.29;100511.72;5067367;28;20462;-30
2022/11/07 06:20:53;;;;;;;74.35;39.42;;;;;;;14.63;84.41;100517.06;5067639;28;20075;-28
2022/11/07 06:23:18;;;;;;;76.00;41.38;;;;;;;14.64;84.29;100532.13;5067662;28;20126;-27
2022/11/07 06:25:44;;;;;;;81.50;39.28;;;;;;;14.59;83.98;100507.84;5049191;28;20043;-27
2022/11/07 06:28:12;;;;;;;66.38;36.90;;;;;;;14.70;83.94;100525.81;5049112;28;20428;-30
2022/11/07 06:30:37;;;;;;;57.60;33.83;;;;;;;14.72;83.40;100534.44;5067205;28;20036;-27
2022/11/07 06:33:05;;;;;;;49.58;32.70;;;;;;;14.97;82.03;100515.38;5067452;28;20033;-28
2022/11/07 06:35:31;;;;;;;52.10;30.88;;;;;;;14.91;82.81;100537.00;5049094;28;20101;-28
2022/11/07 06:38:00;;;;;;;52.90;31.05;;;;;;;14.86;83.39;100535.84;5067291;28;20024;-27
2022/11/07 06:40:26;;;;;;;50.65;28.92;;;;;;;14.63;83.83;100547.41;5048751;28;20020;-27
2022/11/07 06:42:51;;;;;;;47.25;30.00;;;;;;;14.77;83.79;100531.88;5067205;28;20025;-26
2022/11/07 06:45:16;;;;;;;45.15;27.83;;;;;;;14.81;83.65;100530.38;5049064;28;20567;-29
2022/11/07 06:47:42;;;;;;;48.83;29.75;;;;;;;14.99;82.51;100533.94;5066791;28;20063;-29
2022/11/07 06:50:08;;;;;;;51.60;28.77;;;;;;;15.29;81.02;100543.69;5067146;28;20064;-29
2022/11/07 06:52:33;;;;;;;46.03;28.00;;;;;;;15.12;82.22;100544.44;5067147;28;20111;-29
2022/11/07 06:54:59;;;;;;;46.88;28.08;;;;;;;15.21;81.93;100556.44;5067053;28;20021;-26
2022/11/07 06:57:24;;;;;;;44.67;29.23;;;;;;;15.13;82.28;100540.69;5069881;28;20028;-26
2022/11/07 06:59:49;;;;;;;52.78;29.80;;;;;;;15.02;83.18;100555.78;5087145;28;20031;-27
2022/11/07 07:02:15;;;;;;;43.60;29.25;;;;;;;15.23;82.86;100557.00;5087050;28;20116;-26
2022/11/07 07:04:40;;;;;;;44.22;29.15;;;;;;;15.04;82.72;100547.50;5087170;28;20038;-29
2022/11/07 07:07:06;;;;;;;46.45;27.80;;;;;;;15.17;82.70;100560.66;5068547;28;20059;-27
2022/11/07 07:09:32;;;;;;;48.30;31.80;;;;;;;15.50;81.42;100564.53;5086422;28;20627;-28
2022/11/07 07:11:57;;;;;;;76.00;47.35;;;;;;;15.73;80.39;100544.00;5086981;28;20035;-31
2022/11/07 07:14:23;;;;;;;67.07;40.35;;;;;;;15.91;79.30;100559.94;5086706;28;20028;-28
2022/11/07 07:16:48;;;;;;;40.80;25.95;;;;;;;15.91;78.49;100568.00;5086740;28;20511;-28
2022/11/07 07:19:13;;;;;;;38.58;23.85;;;;;;;15.79;78.69;100562.72;5086471;28;20848;-26
2022/11/07 07:21:39;;;;;;;43.10;29.00;;;;;;;16.17;77.52;100560.38;5087066;28;20094;-27
2022/11/07 07:24:05;;;;;;;39.30;25.77;;;;;;;16.26;76.13;100575.91;5086768;28;20149;-28
2022/11/07 07:26:30;;;;;;;51.97;31.70;;;;;;;16.29;76.10;100574.59;5086819;28;20062;-26
2022/11/07 07:28:56;;;;;;;28.17;18.80;;;;;;;16.11;73.93;100569.44;5083342;28;20020;-27
2022/11/07 07:31:25;;;;;;;33.88;17.65;;;;;;;16.17;74.03;100560.38;5073394;28;20111;-28
2022/11/07 07:33:50;;;;;;;32.63;16.10;;;;;;;16.23;73.70;100559.41;5075174;28;20028;-33
2022/11/07 07:36:16;;;;;;;29.55;15.02;;;;;;;16.44;72.36;100563.22;5074619;28;20093;-28
2022/11/07 07:38:42;;;;;;;24.55;13.48;;;;;;;16.36;71.83;100567.16;5073856;28;20035;-27
2022/11/07 07:41:08;;;;;;;24.65;12.27;;;;;;;16.53;70.37;100579.78;5066787;28;20032;-29
2022/11/07 07:43:34;;;;;;;18.77;8.57;;;;;;;16.31;68.21;100561.69;5074371;28;20024;-27
2022/11/07 07:46:04;;;;;;;14.90;8.20;;;;;;;16.32;69.00;100574.06;5074330;28;20028;-28
2022/11/07 07:48:30;;;;;;;20.95;8.98;;;;;;;16.27;67.78;100539.84;5075908;28;20033;-28
2022/11/07 07:50:56;;;;;;;14.35;7.15;;;;;;;15.70;69.91;100560.59;5066696;28;20037;-26
2022/11/07 07:53:22;;;;;;;14.65;7.57;;;;;;;15.55;70.69;100553.06;5066237;28;20052;-27
2022/11/07 07:55:47;;;;;;;22.00;10.05;;;;;;;15.50;70.91;100548.41;5078277;28;20036;-27
2022/11/07 07:58:13;;;;;;;18.50;9.90;;;;;;;15.95;70.14;100547.63;5086511;28;20034;-27
2022/11/07 08:00:40;;;;;;;18.35;8.30;;;;;;;16.41;67.21;100561.06;5068098;28;20119;-27
2022/11/07 08:03:07;;;;;;;16.45;7.47;;;;;;;16.58;67.01;100555.66;5086384;28;20063;-27
2022/11/07 08:05:33;;;;;;;17.58;7.63;;;;;;;16.67;66.43;100557.69;5047285;28;20461;-29
2022/11/07 08:07:58;;;;;;;17.30;8.30;;;;;;;17.08;65.22;100554.75;5054288;28;20071;-30
2022/11/07 08:10:24;;;;;;;14.30;7.65;;;;;;;17.14;64.00;100559.16;5085606;28;20028;-27
2022/11/07 08:12:51;;;;;;;13.70;7.60;;;;;;;16.97;63.46;100552.97;5085064;28;20486;-29
2022/11/07 08:15:19;;;;;;;17.40;7.35;;;;;;;17.10;63.69;100562.56;5085591;28;20035;-27
2022/11/07 08:17:45;;;;;;;;;;;;;;;17.43;63.36;100562.47;5068233;28;20032;-28
2022/11/07 08:20:13;;;;;;;14.43;7.43;;;;;;;17.27;63.08;100542.59;5086457;28;19923;-26
2022/11/07 08:22:39;;;;;;;15.23;7.53;;;;;;;17.38;63.22;100564.28;5090092;28;20028;-29
2022/11/07 08:25:06;;;;;;;13.60;7.13;;;;;;;17.46;62.43;100569.22;5089716;28;20027;-27
2022/11/07 08:27:31;;;;;;;15.50;7.50;;;;;;;17.41;62.61;100571.88;5089881;28;20675;-27
2022/11/07 08:29:57;;;;;;;16.13;7.07;;;;;;;17.47;62.15;100573.56;5089237;28;20093;-28
2022/11/07 08:32:23;;;;;;;17.88;7.15;;;;;;;17.31;62.09;100579.84;5089912;28;20410;-31
2022/11/07 08:34:49;;;;;;;15.88;7.75;;;;;;;16.89;63.00;100573.06;5070814;28;20035;-31
2022/11/07 08:37:14;;;;;;;15.68;7.30;;;;;;;16.88;63.54;100566.06;5089584;28;20044;-27
2022/11/07 08:39:40;;;;;;;16.83;7.38;;;;;;;16.99;63.24;100569.72;5089530;28;20024;-30
2022/11/07 08:42:05;;;;;;;19.40;8.20;;;;;;;17.15;62.86;100571.53;5089189;28;20107;-26
2022/11/07 08:44:35;;;;;;;16.85;9.23;;;;;;;17.30;62.66;100562.00;5089268;28;20016;-27
2022/11/07 08:47:01;;;;;;;16.00;9.40;;;;;;;17.29;62.03;100549.63;5089361;28;20038;-27
2022/11/07 08:49:27;;;;;;;13.68;7.88;;;;;;;17.34;60.36;100558.56;5089579;28;20453;-27
2022/11/07 08:51:52;;;;;;;11.82;6.65;;;;;;;17.58;60.53;100575.28;5088317;28;20036;-28
2022/11/07 08:54:17;;;;;;;14.43;7.20;;;;;;;17.50;59.91;100564.94;5089347;28;20020;-27
2022/11/07 08:56:43;;;;;;;12.98;7.88;;;;;;;17.55;59.86;100575.81;5089286;28;20028;-28
2022/11/07 08:59:09;;;;;;;13.70;7.30;;;;;;;17.75;59.45;100571.69;5070569;28;20028;-28
2022/11/07 09:01:35;;;;;;;14.80;7.53;;;;;;;17.73;59.23;100573.81;5089066;28;20036;-27
2022/11/07 09:04:00;;;;;;;12.27;7.05;;;;;;;17.66;58.62;100549.75;5088757;28;20028;-30
2022/11/07 09:06:26;;;;;;;14.73;7.10;;;;;;;17.72;59.57;100574.91;5089047;28;20044;-28
2022/11/07 09:08:51;;;;;;;12.32;7.13;;;;;;;17.56;60.07;100572.03;5088847;28;20031;-32
2022/11/07 09:11:17;;;;;;;19.88;7.70;;;;;;;17.35;59.87;100554.00;5088924;28;20032;-26
2022/11/07 09:13:45;;;;;;;14.25;7.50;;;;;;;17.58;59.43;100585.25;5088868;28;20720;-29
2022/11/07 09:16:11;;;;;;;16.88;8.00;;;;;;;17.35;59.42;100554.00;5088780;28;20426;-31
2022/11/07 09:18:37;;;;;;;17.25;8.52;;;;;;;17.66;60.01;100580.22;5088891;28;20036;-27
2022/11/07 09:21:02;;;;;;;21.67;8.60;;;;;;;18.19;57.98;100560.81;5070392;28;20031;-28
2022/11/07 09:23:28;;;;;;;20.23;8.90;;;;;;;18.42;57.23;100559.63;5088462;28;20027;-29
2022/11/07 09:25:57;;;;;;;18.00;10.13;;;;;;;18.87;56.52;100575.34;5088347;28;20051;-29
2022/11/07 09:28:22;;;;;;;19.90;9.45;;;;;;;19.07;55.11;100568.44;5088597;28;20109;-29
2022/11/07 09:30:53;;;;;;;18.75;9.20;;;;;;;19.19;55.43;100570.91;5088236;28;20123;-26
2022/11/07 09:33:18;;;;;;;19.90;11.45;;;;;;;18.89;55.68;100555.38;5088687;28;20159;-27
2022/11/07 09:35:44;;;;;;;19.33;10.43;;;;;;;18.67;55.32;100549.00;5088495;28;20472;-28
2022/11/07 09:38:09;;;;;;;16.88;9.65;;;;;;;19.23;54.61;100561.22;5088250;28;20034;-25
2022/11/07 09:40:47;;;;;;;19.63;9.80;;;;;;;19.23;55.12;100567.41;5088024;28;20020;-29
2022/11/07 09:43:19;;;;;;;19.33;9.05;;;;;;;19.33;54.12;100544.19;5070214;28;20059;-27
2022/11/07 09:45:58;;;;;;;21.25;10.93;;;;;;;20.03;52.98;100556.28;5088001;28;20024;-28
2022/11/07 09:48:28;;;;;;;19.90;9.73;;;;;;;20.18;51.97;100565.47;5088237;28;20024;-29
2022/11/07 09:50:53;;;;;;;18.23;8.75;;;;;;;20.48;52.18;100564.66;5088126;28;20039;-31
2022/11/07 09:53:32;;;;;;;17.85;9.27;;;;;;;19.85;52.99;100564.91;5088068;28;20031;-26
2022/11/07 09:56:03;;;;;;;23.70;11.60;;;;;;;19.12;54.10;100538.69;5069632;28;20031;-27
2022/11/07 09:58:35;;;;;;;26.10;12.05;;;;;;;19.58;53.29;100552.38;5088175;28;20023;-27
2022/11/07 10:01:04;;;;;;;24.50;11.18;;;;;;;19.33;54.28;100530.66;5069536;28;20032;-26
2022/11/07 10:03:32;;;;;;;20.35;11.55;;;;;;;19.21;53.99;100537.13;5069356;28;20455;-27
2022/11/07 10:05:57;;;;;;;20.23;10.85;;;;;;;19.34;54.52;100535.81;5087529;28;20055;-27
2022/11/07 10:08:47;;;;;;;24.13;12.02;;;;;;;19.37;53.65;100529.06;5069679;28;20036;-28
2022/11/07 10:11:27;;;;;;;23.30;11.77;;;;;;;19.63;53.21;100528.03;5087682;28;20032;-27
2022/11/07 10:14:15;;;;;;;23.02;12.82;;;;;;;20.00;52.44;100531.63;5087816;28;20027;-28
2022/11/07 10:16:42;;;;;;;21.58;11.52;;;;;;;19.50;52.99;100541.28;5088080;28;20468;-27
2022/11/07 10:19:45;;;;;;;18.98;11.70;;;;;;;20.05;52.66;100545.19;5087856;28;20028;-27
2022/11/07 10:22:19;;;;;;;26.70;13.15;;;;;;;20.05;51.44;100535.16;5087525;28;20103;-30
2022/11/07 10:25:04;;;;;;;22.08;12.07;;;;;;;20.25;51.31;100539.75;5087660;28;20028;-26
2022/11/07 10:27:30;;;;;;;22.52;12.48;;;;;;;20.44;50.91;100526.47;5087590;28;20024;-27
2022/11/07 10:29:58;;;;;;;22.92;12.02;;;;;;;20.75;49.24;100537.25;5087164;28;20039;-27
2022/11/07 10:32:43;;;;;;;22.52;12.45;;;;;;;21.25;48.72;100513.75;5087321;28;20039;-27
2022/11/07 10:35:11;;;;;;;20.90;11.40;;;;;;;21.64;48.48;100525.78;5087348;28;20522;-26
2022/11/07 10:37:37;;;;;;;21.38;12.25;;;;;;;21.67;47.33;100511.63;5087721;28;20035;-27
2022/11/07 10:40:15;;;;;;;21.08;12.00;;;;;;;21.11;48.44;100506.53;5087160;28;20028;-27
2022/11/07 10:42:42;;;;;;;24.35;13.73;;;;;;;20.75;49.54;100504.75;5068587;28;20028;-30
2022/11/07 10:45:13;;;;;;;23.30;12.88;;;;;;;21.43;48.48;100514.22;5086962;28;20111;-26
2022/11/07 10:47:40;;;;;;;20.88;12.52;;;;;;;21.93;46.90;100506.81;5087049;28;20111;-29
2022/11/07 10:50:21;;;;;;;22.77;12.85;;;;;;;22.35;45.72;100519.00;5086878;28;20071;-26
2022/11/07 10:53:08;;;;;;;22.42;12.68;;;;;;;22.65;45.40;100508.91;5087143;28;20035;-29
2022/11/07 10:55:46;;;;;;;23.42;13.73;;;;;;;22.89;44.22;100510.81;5086868;28;20415;-29
2022/11/07 10:58:34;;;;;;;25.23;12.88;;;;;;;22.54;45.05;100507.41;5086901;28;20799;-27
2022/11/07 11:01:08;;;;;;;22.67;12.40;;;;;;;22.27;45.04;100493.25;5068689;28;20020;-31
2022/11/07 11:03:42;;;;;;;21.70;12.00;;;;;;;22.19;45.80;100487.56;5086970;28;20533;-26
2022/11/07 11:06:32;;;;;;;21.58;13.27;;;;;;;22.43;44.77;100499.34;5086363;28;20063;-27
2022/11/07 11:08:58;;;;;;;23.08;12.43;;;;;;;22.73;44.11;100491.94;5068527;28;20059;-28
2022/11/07 11:11:31;;;;;;;24.00;13.18;;;;;;;22.73;44.41;100491.13;5086801;28;20032;-28
2022/11/07 11:14:01;;;;;;;24.88;13.35;;;;;;;22.79;44.81;100474.47;5086719;28;20077;-30
2022/11/07 11:16:29;;;;;;;24.42;13.15;;;;;;;23.01;43.11;100481.28;5086629;28;20036;-30
2022/11/07 11:18:57;;;;;;;21.27;12.30;;;;;;;23.27;42.95;100474.41;5087022;28;20028;-28
2022/11/07 11:21:23;;;;;;;22.60;12.80;;;;;;;23.78;41.35;100477.50;5086959;28;20119;-29
2022/11/07 11:23:49;;;;;;;21.67;12.38;;;;;;;23.93;40.75;100457.38;5086553;28;20103;-31
2022/11/07 11:26:26;;;;;;;22.10;12.48;;;;;;;23.99;41.71;100469.81;5085319;28;20029;-27
2022/11/07 11:29:36;;;;;;;22.63;11.85;;;;;;;24.37;40.58;100472.38;5086571;28;20111;-30